createdAt,value
2022-09-24T00:01:36.723Z,11.00
2022-09-24T00:04:07.304Z,11.00
2022-09-24T00:06:37.047Z,11.10
2022-09-24T00:09:04.592Z,11.10
2022-09-24T00:11:32.172Z,11.10
2022-09-24T00:13:59.709Z,11.10
2022-09-24T00:16:29.116Z,11.20
2022-09-24T00:18:56.040Z,11.20
2022-09-24T00:21:26.192Z,11.20
2022-09-24T00:23:55.489Z,11.10
2022-09-24T00:26:41.583Z,11.20
2022-09-24T00:29:10.063Z,11.10
2022-09-24T00:31:37.159Z,11.20
2022-09-24T00:34:04.595Z,11.20
2022-09-24T00:36:31.825Z,11.20
2022-09-24T00:39:00.197Z,11.10
2022-09-24T00:41:31.368Z,11.10
2022-09-24T00:43:59.153Z,11.00
2022-09-24T00:46:40.358Z,11.00
2022-09-24T00:49:20.319Z,11.00
2022-09-24T00:51:49.835Z,11.00
2022-09-24T00:54:22.638Z,11.00
2022-09-24T00:56:51.127Z,10.90
2022-09-24T00:59:21.026Z,10.90
2022-09-24T01:01:49.453Z,10.90
2022-09-24T01:04:21.262Z,10.80
2022-09-24T01:06:51.978Z,10.80
2022-09-24T01:09:24.186Z,10.90
2022-09-24T01:12:29.014Z,10.80
2022-09-24T01:15:21.344Z,10.80
2022-09-24T01:18:09.286Z,10.80
2022-09-24T01:20:56.081Z,10.80
2022-09-24T01:23:37.946Z,10.80
2022-09-24T01:26:19.944Z,10.70
2022-09-24T01:29:44.236Z,10.50
2022-09-24T01:32:32.444Z,10.60
2022-09-24T01:35:07.880Z,10.60
2022-09-24T01:37:37.728Z,10.60
2022-09-24T01:40:07.527Z,10.50
2022-09-24T01:42:35.080Z,10.50
2022-09-24T01:45:02.547Z,10.50
2022-09-24T01:47:41.394Z,10.50
2022-09-24T01:50:11.294Z,10.50
2022-09-24T01:53:02.737Z,10.50
2022-09-24T01:55:38.417Z,10.50
2022-09-24T01:58:14.496Z,10.50
2022-09-24T02:00:45.277Z,10.40
2022-09-24T02:03:17.409Z,10.40
2022-09-24T02:05:55.017Z,10.40
2022-09-24T02:08:26.370Z,10.40
2022-09-24T02:11:14.763Z,10.30
2022-09-24T02:14:07.847Z,10.30
2022-09-24T02:16:39.039Z,10.30
2022-09-24T02:19:10.513Z,10.30
2022-09-24T02:21:40.450Z,10.30
2022-09-24T02:24:24.144Z,10.40
2022-09-24T02:26:51.324Z,10.30
2022-09-24T02:29:20.838Z,10.30
2022-09-24T02:31:52.829Z,10.40
2022-09-24T02:34:25.570Z,10.50
2022-09-24T02:37:03.528Z,10.40
2022-09-24T02:39:30.265Z,10.20
2022-09-24T02:41:58.289Z,10.10
2022-09-24T02:44:25.058Z,10.20
2022-09-24T02:46:51.824Z,10.20
2022-09-24T02:49:18.887Z,10.10
2022-09-24T02:51:45.717Z,10.00
2022-09-24T02:54:12.826Z,10.00
2022-09-24T02:56:39.952Z,9.90
2022-09-24T02:59:07.742Z,9.90
2022-09-24T03:01:35.226Z,10.00
2022-09-24T03:04:02.649Z,10.10
2022-09-24T03:06:30.442Z,10.10
2022-09-24T03:08:57.401Z,10.10
2022-09-24T03:11:25.085Z,10.20
2022-09-24T03:13:52.027Z,10.20
2022-09-24T03:16:20.476Z,10.30
2022-09-24T03:18:47.839Z,10.20
2022-09-24T03:21:17.116Z,10.10
2022-09-24T03:23:44.424Z,10.10
2022-09-24T03:26:11.368Z,10.10
2022-09-24T03:28:38.537Z,10.20
2022-09-24T03:31:06.172Z,10.20
2022-09-24T03:33:42.130Z,10.30
2022-09-24T03:36:12.099Z,10.30
2022-09-24T03:38:40.759Z,10.30
2022-09-24T03:41:08.626Z,10.30
2022-09-24T03:43:36.055Z,10.20
2022-09-24T03:46:04.224Z,10.20
2022-09-24T03:48:31.001Z,10.20
2022-09-24T03:51:02.677Z,10.20
2022-09-24T03:53:29.412Z,10.30
2022-09-24T03:55:57.097Z,10.30
2022-09-24T03:58:25.130Z,10.30
2022-09-24T04:00:55.508Z,10.30
2022-09-24T04:03:22.790Z,10.30
2022-09-24T04:05:51.337Z,10.30
2022-09-24T04:08:22.005Z,10.20
2022-09-24T04:10:49.951Z,10.20
2022-09-24T04:13:18.241Z,10.30
2022-09-24T04:15:45.450Z,10.30
2022-09-24T04:18:12.528Z,10.30
2022-09-24T04:20:39.806Z,10.30
2022-09-24T04:23:06.740Z,10.40
2022-09-24T04:25:34.224Z,10.40
2022-09-24T04:28:03.999Z,10.40
2022-09-24T04:30:32.743Z,10.40
2022-09-24T04:33:00.794Z,10.40
2022-09-24T04:35:29.957Z,10.50
2022-09-24T04:37:57.806Z,10.40
2022-09-24T04:40:24.806Z,10.40
2022-09-24T04:42:52.539Z,10.40
2022-09-24T04:45:20.333Z,10.40
2022-09-24T04:47:52.665Z,10.40
2022-09-24T04:50:20.486Z,10.50
2022-09-24T04:52:47.425Z,10.50
2022-09-24T04:55:14.480Z,10.50
2022-09-24T04:57:41.391Z,10.50
2022-09-24T05:00:14.690Z,10.50
2022-09-24T05:02:42.521Z,10.50
2022-09-24T05:05:09.712Z,10.50
2022-09-24T05:07:37.182Z,10.50
2022-09-24T05:10:05.016Z,10.60
2022-09-24T05:12:31.807Z,10.60
2022-09-24T05:14:58.601Z,10.50
2022-09-24T05:17:25.306Z,10.60
2022-09-24T05:19:52.300Z,10.60
2022-09-24T05:22:19.378Z,10.60
2022-09-24T05:24:46.119Z,10.60
2022-09-24T05:27:12.883Z,10.50
2022-09-24T05:29:41.381Z,10.60
2022-09-24T05:32:10.634Z,10.60
2022-09-24T05:34:37.487Z,10.70
2022-09-24T05:37:04.905Z,10.70
2022-09-24T05:39:34.087Z,10.70
2022-09-24T05:42:03.727Z,10.70
2022-09-24T05:44:33.583Z,10.60
2022-09-24T05:47:00.389Z,10.70
2022-09-24T05:49:27.204Z,10.70
2022-09-24T05:51:53.921Z,10.80
2022-09-24T05:54:20.720Z,10.80
2022-09-24T05:56:47.525Z,10.80
2022-09-24T05:59:14.348Z,10.80
2022-09-24T06:01:41.205Z,10.80
2022-09-24T06:04:09.322Z,10.80
2022-09-24T06:06:36.395Z,10.80
2022-09-24T06:09:04.117Z,10.90
2022-09-24T06:11:40.329Z,10.90
2022-09-24T06:14:09.017Z,11.00
2022-09-24T06:16:36.082Z,11.00
2022-09-24T06:19:02.957Z,11.10
2022-09-24T06:21:29.883Z,11.10
2022-09-24T06:23:56.655Z,11.10
2022-09-24T06:26:23.637Z,11.10
2022-09-24T06:28:50.391Z,11.10
2022-09-24T06:31:17.247Z,11.20
2022-09-24T06:33:44.017Z,11.20
2022-09-24T06:36:10.960Z,11.30
2022-09-24T06:38:40.391Z,11.30
2022-09-24T06:41:07.660Z,11.40
2022-09-24T06:43:35.129Z,11.40
2022-09-24T06:46:03.320Z,11.40
2022-09-24T06:48:31.232Z,11.40
2022-09-24T06:50:58.485Z,11.50
2022-09-24T06:53:25.860Z,11.50
2022-09-24T06:55:55.992Z,11.50
2022-09-24T06:58:23.716Z,11.60
2022-09-24T07:00:53.094Z,11.70
2022-09-24T07:03:20.704Z,11.80
2022-09-24T07:05:47.741Z,12.00
2022-09-24T07:08:14.525Z,12.00
2022-09-24T07:10:45.505Z,12.10
2022-09-24T07:13:13.690Z,12.10
2022-09-24T07:15:41.374Z,12.40
2022-09-24T07:18:08.938Z,12.40
2022-09-24T07:20:37.003Z,12.50
2022-09-24T07:23:05.391Z,12.60
2022-09-24T07:25:33.181Z,12.60
2022-09-24T07:28:11.495Z,12.60
2022-09-24T07:30:39.717Z,12.60
2022-09-24T07:33:09.723Z,12.60
2022-09-24T07:35:40.307Z,12.60
2022-09-24T07:38:12.114Z,12.70
2022-09-24T07:40:39.190Z,12.70
2022-09-24T07:43:13.655Z,12.70
2022-09-24T07:45:41.848Z,12.70
2022-09-24T07:48:10.803Z,12.80
2022-09-24T07:50:42.798Z,12.90
2022-09-24T07:53:13.271Z,12.90
2022-09-24T07:55:40.614Z,12.90
2022-09-24T07:58:16.459Z,13.10
2022-09-24T08:00:43.207Z,13.20
2022-09-24T08:03:10.800Z,13.10
2022-09-24T08:05:45.250Z,13.20
2022-09-24T08:08:12.373Z,13.30
2022-09-24T08:10:39.129Z,13.30
2022-09-24T08:13:05.875Z,13.30
2022-09-24T08:15:32.655Z,13.30
2022-09-24T08:18:03.485Z,13.30
2022-09-24T08:20:31.654Z,13.30
2022-09-24T08:23:02.349Z,13.30
2022-09-24T08:25:29.230Z,13.30
2022-09-24T08:27:55.933Z,13.50
2022-09-24T08:30:22.693Z,13.60
2022-09-24T08:32:49.435Z,13.80
2022-09-24T08:35:16.316Z,13.90
2022-09-24T08:37:43.052Z,14.10
2022-09-24T08:40:19.082Z,14.20
2022-09-24T08:42:54.594Z,14.10
2022-09-24T08:45:39.976Z,14.20
2022-09-24T08:48:17.236Z,14.30
2022-09-24T08:50:58.015Z,14.40
2022-09-24T08:53:51.105Z,14.20
2022-09-24T08:56:23.575Z,14.50
2022-09-24T08:59:16.396Z,14.80
2022-09-24T09:01:49.681Z,14.70
2022-09-24T09:04:35.293Z,14.70
2022-09-24T09:07:10.924Z,15.10
2022-09-24T09:09:54.397Z,15.50
2022-09-24T09:12:31.631Z,15.60
2022-09-24T09:15:26.405Z,15.60
2022-09-24T09:17:59.988Z,15.60
2022-09-24T09:20:31.794Z,15.70
2022-09-24T09:23:10.865Z,15.80
2022-09-24T09:25:43.362Z,15.80
2022-09-24T09:28:15.486Z,15.70
2022-09-24T09:31:22.516Z,15.70
2022-09-24T09:34:14.043Z,16.00
2022-09-24T09:37:25.713Z,16.30
2022-09-24T09:40:27.710Z,16.70
2022-09-24T09:43:09.123Z,16.60
2022-09-24T09:46:18.499Z,16.10
2022-09-24T09:48:52.256Z,16.40
2022-09-24T09:51:22.674Z,16.30
2022-09-24T09:54:01.251Z,15.80
2022-09-24T09:56:43.705Z,15.90
2022-09-24T09:59:13.434Z,15.90
2022-09-24T10:01:42.538Z,16.20
2022-09-24T10:04:24.376Z,16.30
2022-09-24T10:06:51.128Z,16.40
2022-09-24T10:09:20.955Z,16.40
2022-09-24T10:11:48.455Z,16.40
2022-09-24T10:14:19.200Z,16.20
2022-09-24T10:16:52.185Z,16.10
2022-09-24T10:19:20.104Z,16.10
2022-09-24T10:21:47.272Z,16.10
2022-09-24T10:24:23.327Z,16.30
2022-09-24T10:26:50.549Z,16.50
2022-09-24T10:29:45.147Z,16.50
2022-09-24T10:32:20.641Z,16.40
2022-09-24T10:35:01.413Z,16.50
2022-09-24T10:37:29.302Z,16.40
2022-09-24T10:40:38.282Z,16.60
2022-09-24T10:43:06.834Z,16.60
2022-09-24T10:45:49.642Z,16.50
2022-09-24T10:48:38.764Z,16.70
2022-09-24T10:51:35.029Z,16.70
2022-09-24T10:54:01.790Z,16.70
2022-09-24T10:56:31.261Z,16.70
2022-09-24T10:59:22.712Z,16.70
2022-09-24T11:02:14.182Z,16.80
2022-09-24T11:04:51.732Z,16.80
2022-09-24T11:07:39.865Z,16.90
2022-09-24T11:10:10.327Z,17.00
2022-09-24T11:12:58.186Z,16.80
2022-09-24T11:15:27.758Z,16.70
2022-09-24T11:18:09.973Z,16.80
2022-09-24T11:20:39.441Z,16.80
2022-09-24T11:23:24.624Z,16.70
2022-09-24T11:26:29.269Z,16.80
2022-09-24T11:29:11.022Z,16.80
2022-09-24T11:31:59.728Z,16.70
2022-09-24T11:34:51.524Z,16.60
2022-09-24T11:37:32.429Z,16.50
2022-09-24T11:40:19.452Z,16.60
2022-09-24T11:43:20.033Z,16.60
2022-09-24T11:46:05.661Z,16.60
2022-09-24T11:48:57.022Z,16.70
2022-09-24T11:51:34.136Z,16.60
2022-09-24T11:54:10.529Z,16.40
2022-09-24T11:56:46.209Z,16.40
2022-09-24T11:59:24.941Z,16.50
2022-09-24T12:01:58.570Z,16.50
2022-09-24T12:04:40.425Z,16.40
2022-09-24T12:07:38.730Z,16.40
2022-09-24T12:10:29.866Z,16.40
2022-09-24T12:13:25.082Z,16.50
2022-09-24T12:16:00.943Z,16.60
2022-09-24T12:18:33.521Z,16.60
2022-09-24T12:21:08.721Z,16.40
2022-09-24T12:23:40.970Z,16.40
2022-09-24T12:26:08.961Z,16.50
2022-09-24T12:29:49.236Z,16.40
2022-09-24T12:32:51.598Z,16.50
2022-09-24T12:35:42.779Z,16.30
2022-09-24T12:38:32.637Z,16.30
2022-09-24T12:41:20.610Z,16.40
2022-09-24T12:43:59.545Z,16.60
2022-09-24T12:46:31.834Z,16.60
2022-09-24T12:48:59.596Z,16.70
2022-09-24T12:51:35.611Z,16.60
2022-09-24T12:54:09.330Z,16.60
2022-09-24T12:56:36.304Z,16.60
2022-09-24T12:59:05.688Z,16.60
2022-09-24T13:01:34.466Z,16.80
2022-09-24T13:04:15.129Z,16.70
2022-09-24T13:06:45.033Z,16.70
2022-09-24T13:09:26.245Z,16.50
2022-09-24T13:12:17.707Z,16.50
2022-09-24T13:15:02.830Z,16.50
2022-09-24T13:17:34.557Z,16.60
2022-09-24T13:20:17.053Z,16.40
2022-09-24T13:22:43.843Z,16.30
2022-09-24T13:25:10.689Z,16.20
2022-09-24T13:27:38.008Z,16.20
2022-09-24T13:30:40.414Z,16.10
2022-09-24T13:33:19.529Z,16.10
2022-09-24T13:36:06.590Z,16.20
2022-09-24T13:38:44.839Z,16.10
2022-09-24T13:41:20.755Z,16.20
2022-09-24T13:43:54.686Z,16.10
2022-09-24T13:46:22.386Z,16.10
2022-09-24T13:48:53.646Z,16.10
2022-09-24T13:51:27.645Z,16.10
2022-09-24T13:54:08.089Z,16.20
2022-09-24T13:56:35.027Z,16.10
2022-09-24T13:59:09.943Z,16.00
2022-09-24T14:01:42.386Z,16.00
2022-09-24T14:04:23.403Z,15.90
2022-09-24T14:06:56.165Z,15.80
2022-09-24T14:09:32.982Z,15.80
2022-09-24T14:12:03.146Z,15.70
2022-09-24T14:14:31.121Z,15.50
2022-09-24T14:17:18.123Z,15.50
2022-09-24T14:19:44.977Z,15.50
2022-09-24T14:22:42.908Z,15.40
2022-09-24T14:25:29.657Z,15.40
2022-09-24T14:27:59.264Z,15.30
2022-09-24T14:30:29.055Z,15.20
2022-09-24T14:32:59.860Z,15.20
2022-09-24T14:35:36.686Z,15.10
2022-09-24T14:38:08.900Z,15.10
2022-09-24T14:41:00.614Z,15.00
2022-09-24T14:43:31.525Z,14.90
2022-09-24T14:46:09.492Z,15.00
2022-09-24T14:48:36.403Z,15.00
2022-09-24T14:51:03.433Z,14.90
2022-09-24T14:53:36.127Z,14.80
2022-09-24T14:56:27.443Z,14.80
2022-09-24T14:58:54.279Z,14.90
2022-09-24T15:01:24.080Z,14.90
2022-09-24T15:03:54.396Z,14.80
2022-09-24T15:06:36.262Z,14.80
2022-09-24T15:09:23.435Z,14.80
2022-09-24T15:11:50.433Z,14.80
2022-09-24T15:14:21.260Z,14.70
2022-09-24T15:16:48.166Z,14.80
2022-09-24T15:19:21.778Z,14.70
2022-09-24T15:21:51.296Z,14.70
2022-09-24T15:24:19.883Z,14.70
2022-09-24T15:26:49.335Z,14.80
2022-09-24T15:29:23.924Z,14.80
2022-09-24T15:31:52.221Z,14.70
2022-09-24T15:34:20.516Z,14.70
2022-09-24T15:36:59.437Z,14.60
2022-09-24T15:39:31.911Z,14.60
2022-09-24T15:41:58.622Z,14.60
2022-09-24T15:44:32.951Z,14.60
2022-09-24T15:47:00.602Z,14.60
2022-09-24T15:49:27.415Z,14.60
2022-09-24T15:52:01.677Z,14.60
2022-09-24T15:54:28.998Z,14.60
2022-09-24T15:56:55.813Z,14.50
2022-09-24T15:59:23.518Z,14.60
2022-09-24T16:01:53.424Z,14.60
2022-09-24T16:04:20.449Z,14.50
2022-09-24T16:06:47.359Z,14.60
2022-09-24T16:09:14.165Z,14.30
2022-09-24T16:11:41.082Z,14.40
2022-09-24T16:14:09.103Z,14.40
2022-09-24T16:16:41.309Z,14.30
2022-09-24T16:19:08.624Z,14.30
2022-09-24T16:21:35.714Z,14.30
2022-09-24T16:24:03.287Z,14.20
2022-09-24T16:26:30.225Z,14.20
2022-09-24T16:28:57.350Z,14.20
2022-09-24T16:31:24.288Z,14.10
2022-09-24T16:33:51.100Z,14.10
2022-09-24T16:36:18.862Z,14.10
2022-09-24T16:38:45.733Z,14.10
2022-09-24T16:41:12.567Z,14.10
2022-09-24T16:43:39.428Z,14.10
2022-09-24T16:46:10.275Z,14.10
2022-09-24T16:48:37.759Z,14.10
2022-09-24T16:51:10.680Z,14.20
2022-09-24T16:53:38.432Z,14.10
2022-09-24T16:56:08.417Z,14.10
2022-09-24T16:58:35.664Z,14.10
2022-09-24T17:01:07.142Z,14.20
2022-09-24T17:03:34.406Z,14.20
2022-09-24T17:06:01.809Z,14.20
2022-09-24T17:09:06.055Z,14.40
2022-09-24T17:11:33.504Z,14.40
2022-09-24T17:14:00.825Z,14.20
2022-09-24T17:16:28.024Z,14.10
2022-09-24T17:18:55.751Z,13.90
2022-09-24T17:21:23.335Z,13.90
2022-09-24T17:23:50.896Z,13.80
2022-09-24T17:26:21.333Z,13.80
2022-09-24T17:28:51.518Z,13.70
2022-09-24T17:31:22.868Z,13.70
2022-09-24T17:34:01.798Z,13.70
2022-09-24T17:36:31.021Z,13.70
2022-09-24T17:38:59.360Z,13.70
2022-09-24T17:41:27.291Z,13.70
2022-09-24T17:43:58.454Z,13.80
2022-09-24T17:46:30.252Z,13.90
2022-09-24T17:48:59.789Z,13.80
2022-09-24T17:51:32.642Z,13.70
2022-09-24T17:54:01.377Z,13.70
2022-09-24T17:56:30.143Z,13.70
2022-09-24T17:58:57.186Z,13.60
2022-09-24T18:01:27.912Z,13.50
2022-09-24T18:03:56.797Z,13.50
2022-09-24T18:06:28.101Z,13.40
2022-09-24T18:08:57.927Z,13.30
2022-09-24T18:11:27.278Z,13.30
2022-09-24T18:13:58.788Z,13.40
2022-09-24T18:16:28.673Z,13.40
2022-09-24T18:18:55.949Z,13.40
2022-09-24T18:21:25.885Z,13.30
2022-09-24T18:23:54.555Z,13.30
2022-09-24T18:26:35.439Z,13.30
2022-09-24T18:29:05.944Z,13.30
2022-09-24T18:31:33.515Z,13.30
2022-09-24T18:34:06.810Z,13.30
2022-09-24T18:36:37.555Z,13.20
2022-09-24T18:39:06.888Z,13.00
2022-09-24T18:41:37.187Z,12.90
2022-09-24T18:44:04.589Z,13.00
2022-09-24T18:46:32.705Z,13.00
2022-09-24T18:49:00.570Z,12.90
2022-09-24T18:51:30.556Z,12.80
2022-09-24T18:53:58.976Z,12.80
2022-09-24T18:56:26.705Z,12.90
2022-09-24T18:59:18.783Z,12.80
2022-09-24T19:01:47.210Z,12.90
2022-09-24T19:04:14.601Z,12.90
2022-09-24T19:06:45.114Z,12.90
2022-09-24T19:09:14.333Z,12.80
2022-09-24T19:11:41.900Z,12.80
2022-09-24T19:14:11.077Z,12.90
2022-09-24T19:16:37.880Z,12.80
2022-09-24T19:19:04.727Z,12.70
2022-09-24T19:21:31.607Z,12.70
2022-09-24T19:23:58.961Z,12.70
2022-09-24T19:26:31.205Z,12.70
2022-09-24T19:28:58.562Z,12.70
2022-09-24T19:31:26.994Z,12.70
2022-09-24T19:33:54.309Z,12.70
2022-09-24T19:36:22.322Z,12.70
2022-09-24T19:38:50.158Z,12.70
2022-09-24T19:41:21.533Z,12.70
2022-09-24T19:43:50.945Z,12.80
2022-09-24T19:46:19.659Z,12.70
2022-09-24T19:48:48.688Z,12.70
2022-09-24T19:51:17.859Z,12.70
2022-09-24T19:53:48.819Z,12.80
2022-09-24T19:56:16.439Z,12.80
2022-09-24T19:58:47.282Z,12.80
2022-09-24T20:01:17.412Z,12.80
2022-09-24T20:03:45.277Z,12.80
2022-09-24T20:06:17.600Z,12.80
2022-09-24T20:08:44.831Z,12.70
2022-09-24T20:11:20.513Z,12.70
2022-09-24T20:13:48.586Z,12.70
2022-09-24T20:16:26.022Z,12.80
2022-09-24T20:18:57.596Z,12.70
2022-09-24T20:21:32.060Z,12.70
2022-09-24T20:23:59.352Z,12.70
2022-09-24T20:26:45.616Z,12.70
2022-09-24T20:29:13.948Z,12.70
2022-09-24T20:31:42.633Z,12.80
2022-09-24T20:34:09.572Z,12.80
2022-09-24T20:36:36.452Z,12.70
2022-09-24T20:39:04.109Z,12.70
2022-09-24T20:41:30.982Z,12.70
2022-09-24T20:43:57.823Z,12.80
2022-09-24T20:46:28.836Z,12.80
2022-09-24T20:49:00.631Z,12.70
2022-09-24T20:51:30.102Z,12.60
2022-09-24T20:53:59.047Z,12.60
2022-09-24T20:56:26.914Z,12.60
2022-09-24T20:58:54.159Z,12.60
2022-09-24T21:01:22.456Z,12.70
2022-09-24T21:03:50.170Z,12.70
2022-09-24T21:06:18.090Z,12.60
2022-09-24T21:08:46.517Z,12.50
2022-09-24T21:11:18.151Z,12.50
2022-09-24T21:13:53.156Z,12.50
2022-09-24T21:16:25.905Z,12.40
2022-09-24T21:18:56.381Z,12.40
2022-09-24T21:21:24.824Z,12.40
2022-09-24T21:23:54.277Z,12.40
2022-09-24T21:26:23.628Z,12.40
2022-09-24T21:28:52.377Z,12.40
2022-09-24T21:31:25.242Z,12.40
2022-09-24T21:33:53.385Z,12.40
2022-09-24T21:36:24.132Z,12.40
2022-09-24T21:38:57.913Z,12.40
2022-09-24T21:41:27.223Z,12.40
2022-09-24T21:43:55.597Z,12.40
2022-09-24T21:46:23.718Z,12.40
2022-09-24T21:48:54.012Z,12.60
2022-09-24T21:51:22.205Z,12.60
2022-09-24T21:53:50.993Z,12.60
2022-09-24T21:56:19.372Z,12.50
2022-09-24T21:58:50.468Z,12.50
2022-09-24T22:01:26.388Z,12.50
2022-09-24T22:03:58.520Z,12.50
2022-09-24T22:06:29.049Z,12.50
2022-09-24T22:09:05.735Z,12.60
2022-09-24T22:11:34.551Z,12.60
2022-09-24T22:14:02.306Z,12.70
2022-09-24T22:16:31.170Z,12.60
2022-09-24T22:18:58.726Z,12.60
2022-09-24T22:21:26.227Z,12.80
2022-09-24T22:23:53.415Z,12.70
2022-09-24T22:26:20.248Z,12.70
2022-09-24T22:28:47.174Z,12.60
2022-09-24T22:31:16.686Z,12.60
2022-09-24T22:34:02.845Z,12.70
2022-09-24T22:36:31.234Z,12.70
2022-09-24T22:38:59.571Z,12.70
2022-09-24T22:41:29.010Z,12.60
2022-09-24T22:43:59.374Z,12.50
2022-09-24T22:46:27.456Z,12.60
2022-09-24T22:48:57.866Z,12.50
2022-09-24T22:51:27.067Z,12.50
2022-09-24T22:53:54.677Z,12.60
2022-09-24T22:56:26.536Z,12.70
2022-09-24T22:58:58.302Z,12.80
2022-09-24T23:01:26.520Z,12.80
2022-09-24T23:03:55.638Z,12.70
2022-09-24T23:06:23.397Z,12.60
2022-09-24T23:08:51.268Z,12.60
2022-09-24T23:11:24.449Z,12.60
2022-09-24T23:14:01.367Z,12.60
2022-09-24T23:16:30.612Z,12.70
2022-09-24T23:18:59.555Z,12.70
2022-09-24T23:21:28.403Z,12.70
2022-09-24T23:23:57.130Z,12.70
2022-09-24T23:26:25.340Z,12.70
2022-09-24T23:28:53.353Z,12.80
2022-09-24T23:31:22.870Z,12.90
2022-09-24T23:33:50.038Z,12.90
2022-09-24T23:36:17.750Z,13.00
2022-09-24T23:38:44.669Z,13.00
2022-09-24T23:41:12.811Z,13.00
2022-09-24T23:43:41.157Z,13.00
2022-09-24T23:46:08.566Z,13.20
2022-09-24T23:48:35.422Z,13.10
2022-09-24T23:51:03.325Z,13.10
2022-09-24T23:53:30.321Z,13.10
2022-09-24T23:55:57.026Z,13.20
2022-09-24T23:58:24.471Z,13.20
